createdAt,value
2016-05-27T00:00:33.106Z,963.51
2016-05-27T00:01:33.108Z,963.52
2016-05-27T00:02:33.126Z,963.53
2016-05-27T00:03:33.098Z,963.51
2016-05-27T00:04:33.101Z,963.59
2016-05-27T00:05:33.103Z,963.53
2016-05-27T00:06:33.106Z,963.54
2016-05-27T00:07:33.109Z,963.52
2016-05-27T00:08:33.111Z,963.52
2016-05-27T00:09:33.114Z,963.52
2016-05-27T00:10:33.117Z,963.49
2016-05-27T00:11:33.119Z,963.54
2016-05-27T00:12:33.122Z,963.49
2016-05-27T00:13:33.124Z,963.43
2016-05-27T00:14:33.128Z,963.47
2016-05-27T00:15:33.130Z,963.46
2016-05-27T00:16:33.117Z,963.44
2016-05-27T00:17:33.120Z,963.44
2016-05-27T00:18:33.123Z,963.43
2016-05-27T00:19:33.126Z,963.48
2016-05-27T00:20:33.144Z,963.48
2016-05-27T00:21:33.131Z,963.46
2016-05-27T00:22:33.133Z,963.42
2016-05-27T00:23:33.136Z,963.44
2016-05-27T00:24:33.140Z,963.43
2016-05-27T00:25:33.142Z,963.44
2016-05-27T00:26:33.145Z,963.45
2016-05-27T00:27:33.147Z,963.43
2016-05-27T00:28:33.150Z,963.47
2016-05-27T00:29:33.152Z,963.4
2016-05-27T00:30:33.155Z,963.37
2016-05-27T00:31:33.158Z,963.37
2016-05-27T00:32:33.161Z,963.35
2016-05-27T00:33:33.163Z,963.37
2016-05-27T00:34:33.150Z,963.4
2016-05-27T00:35:33.152Z,963.37
2016-05-27T00:36:33.155Z,963.37
2016-05-27T00:37:33.158Z,963.34
2016-05-27T00:38:33.161Z,963.37
2016-05-27T00:39:33.163Z,963.36
2016-05-27T00:40:33.166Z,963.37
2016-05-27T00:41:33.169Z,963.36
2016-05-27T00:42:33.171Z,963.36
2016-05-27T00:43:33.174Z,963.35
2016-05-27T00:44:33.177Z,963.32
2016-05-27T00:45:33.180Z,963.3
2016-05-27T00:46:33.182Z,963.36
2016-05-27T00:47:33.185Z,963.32
2016-05-27T00:48:33.484Z,963.33
2016-05-27T00:49:33.175Z,963.37
2016-05-27T00:50:33.177Z,963.39
2016-05-27T00:51:33.180Z,963.39
2016-05-27T00:52:33.198Z,963.41
2016-05-27T00:53:33.185Z,963.44
2016-05-27T00:54:33.188Z,963.45
2016-05-27T00:55:33.190Z,963.44
2016-05-27T00:56:33.193Z,963.48
2016-05-27T00:57:33.196Z,963.45
2016-05-27T00:58:33.198Z,963.47
2016-05-27T00:59:33.202Z,963.48
2016-05-27T01:00:33.189Z,963.51
2016-05-27T01:01:33.206Z,963.52
2016-05-27T01:02:33.195Z,963.57
2016-05-27T01:03:33.197Z,963.56
2016-05-27T01:04:33.200Z,963.56
2016-05-27T01:05:33.202Z,963.56
2016-05-27T01:06:33.205Z,963.51
2016-05-27T01:07:33.208Z,963.53
2016-05-27T01:08:33.210Z,963.57
2016-05-27T01:09:33.213Z,963.6
2016-05-27T01:10:33.215Z,963.61
2016-05-27T01:11:33.218Z,963.64
2016-05-27T01:12:33.221Z,963.7
2016-05-27T01:13:33.208Z,963.71
2016-05-27T01:14:33.227Z,963.7
2016-05-27T01:15:33.213Z,963.72
2016-05-27T01:16:33.216Z,963.74
2016-05-27T01:17:33.219Z,963.69
2016-05-27T01:18:33.222Z,963.64
2016-05-27T01:19:33.240Z,963.63
2016-05-27T01:20:33.227Z,963.68
2016-05-27T01:21:33.229Z,963.68
2016-05-27T01:22:33.233Z,963.7
2016-05-27T01:23:33.234Z,963.7
2016-05-27T01:24:33.237Z,963.75
2016-05-27T01:25:33.240Z,963.72
2016-05-27T01:26:33.227Z,963.71
2016-05-27T01:27:33.230Z,963.68
2016-05-27T01:28:33.233Z,963.67
2016-05-27T01:29:33.235Z,963.7
2016-05-27T01:30:33.238Z,963.65
2016-05-27T01:31:33.240Z,963.64
2016-05-27T01:32:33.259Z,963.63
2016-05-27T01:33:33.246Z,963.62
2016-05-27T01:34:33.249Z,963.64
2016-05-27T01:35:33.251Z,963.59
2016-05-27T01:36:33.253Z,963.57
2016-05-27T01:37:33.242Z,963.57
2016-05-27T01:38:33.244Z,963.56
2016-05-27T01:39:33.247Z,963.54
2016-05-27T01:40:33.249Z,963.6
2016-05-27T01:41:33.252Z,963.61
2016-05-27T01:42:33.255Z,963.68
2016-05-27T01:43:33.258Z,963.66
2016-05-27T01:44:33.260Z,963.7
2016-05-27T01:45:33.263Z,963.73
2016-05-27T01:46:33.266Z,963.72
2016-05-27T01:47:33.268Z,963.74
2016-05-27T01:48:33.271Z,963.76
2016-05-27T01:49:33.276Z,963.73
2016-05-27T01:50:33.282Z,963.74
2016-05-27T01:51:33.304Z,963.7
2016-05-27T01:52:33.326Z,963.71
2016-05-27T01:53:33.348Z,963.77
2016-05-27T01:54:33.368Z,963.74
2016-05-27T01:55:33.378Z,963.81
2016-05-27T01:56:33.387Z,963.82
2016-05-27T01:57:33.397Z,963.8
2016-05-27T01:58:33.407Z,963.82
2016-05-27T01:59:33.415Z,963.82
2016-05-27T02:00:33.421Z,963.8
2016-05-27T02:01:33.412Z,963.78
2016-05-27T02:02:33.431Z,963.8
2016-05-27T02:03:34.000Z,963.8
2016-05-27T02:04:33.427Z,963.82
2016-05-27T02:05:33.430Z,963.81
2016-05-27T02:06:33.434Z,963.86
2016-05-27T02:07:33.438Z,963.85
2016-05-27T02:08:33.442Z,963.86
2016-05-27T02:09:33.444Z,963.81
2016-05-27T02:10:33.448Z,963.87
2016-05-27T02:11:33.434Z,963.87
2016-05-27T02:12:33.438Z,963.85
2016-05-27T02:13:33.457Z,963.85
2016-05-27T02:14:33.443Z,963.86
2016-05-27T02:15:33.446Z,963.85
2016-05-27T02:16:33.449Z,963.8
2016-05-27T02:17:33.452Z,963.83
2016-05-27T02:18:33.486Z,963.84
2016-05-27T02:19:33.458Z,963.85
2016-05-27T02:20:33.460Z,963.83
2016-05-27T02:21:33.462Z,963.85
2016-05-27T02:22:33.465Z,963.83
2016-05-27T02:23:33.468Z,963.85
2016-05-27T02:24:33.471Z,963.87
2016-05-27T02:25:33.473Z,963.92
2016-05-27T02:26:33.460Z,963.88
2016-05-27T02:27:33.462Z,963.84
2016-05-27T02:28:33.465Z,963.86
2016-05-27T02:29:33.468Z,963.84
2016-05-27T02:30:33.471Z,963.89
2016-05-27T02:31:33.473Z,963.89
2016-05-27T02:32:33.461Z,963.85
2016-05-27T02:33:33.463Z,963.89
2016-05-27T02:34:33.467Z,963.91
2016-05-27T02:35:33.469Z,963.95
2016-05-27T02:36:33.472Z,963.97
2016-05-27T02:37:33.474Z,963.98
2016-05-27T02:38:33.493Z,963.98
2016-05-27T02:39:33.480Z,963.97
2016-05-27T02:40:33.482Z,963.96
2016-05-27T02:41:33.485Z,963.97
2016-05-27T02:42:33.488Z,963.96
2016-05-27T02:43:33.491Z,963.97
2016-05-27T02:44:33.478Z,963.99
2016-05-27T02:45:33.480Z,963.98
2016-05-27T02:46:33.482Z,963.99
2016-05-27T02:47:33.485Z,964.01
2016-05-27T02:48:33.488Z,964.02
2016-05-27T02:49:33.491Z,964.09
2016-05-27T02:50:33.494Z,964.06
2016-05-27T02:51:33.496Z,964.08
2016-05-27T02:52:33.499Z,964.06
2016-05-27T02:53:33.502Z,964.1
2016-05-27T02:54:33.504Z,964.02
2016-05-27T02:55:33.491Z,964.01
2016-05-27T02:56:33.494Z,964.01
2016-05-27T02:57:33.512Z,964.03
2016-05-27T02:58:33.499Z,964.01
2016-05-27T02:59:33.502Z,963.97
2016-05-27T03:00:33.505Z,963.93
2016-05-27T03:01:33.508Z,963.93
2016-05-27T03:02:33.510Z,963.95
2016-05-27T03:03:33.513Z,963.91
2016-05-27T03:04:33.515Z,963.9
2016-05-27T03:05:33.503Z,963.92
2016-05-27T03:06:33.506Z,963.94
2016-05-27T03:07:33.509Z,964.01
2016-05-27T03:08:33.511Z,963.99
2016-05-27T03:09:33.514Z,964
2016-05-27T03:10:33.517Z,963.99
2016-05-27T03:11:33.519Z,964.01
2016-05-27T03:12:33.522Z,964
2016-05-27T03:13:33.524Z,963.99
2016-05-27T03:14:33.512Z,964
2016-05-27T03:15:33.514Z,964.04
2016-05-27T03:16:33.533Z,964.09
2016-05-27T03:17:33.519Z,964.09
2016-05-27T03:18:33.522Z,964.09
2016-05-27T03:19:33.525Z,964.11
2016-05-27T03:20:33.528Z,964.11
2016-05-27T03:21:33.530Z,964.12
2016-05-27T03:22:33.533Z,964.13
2016-05-27T03:23:33.536Z,964.18
2016-05-27T03:24:33.523Z,964.15
2016-05-27T03:25:33.541Z,964.18
2016-05-27T03:26:33.528Z,964.16
2016-05-27T03:27:33.531Z,964.21
2016-05-27T03:28:33.534Z,964.23
2016-05-27T03:29:33.537Z,964.29
2016-05-27T03:30:33.539Z,964.33
2016-05-27T03:31:33.542Z,964.35
2016-05-27T03:32:33.545Z,964.35
2016-05-27T03:33:33.718Z,964.38
2016-05-27T03:34:33.534Z,964.33
2016-05-27T03:35:33.537Z,964.32
2016-05-27T03:36:33.539Z,964.34
2016-05-27T03:37:33.542Z,964.32
2016-05-27T03:38:33.545Z,964.34
2016-05-27T03:39:33.547Z,964.32
2016-05-27T03:40:33.550Z,964.3
2016-05-27T03:41:33.553Z,964.29
2016-05-27T03:42:33.556Z,964.27
2016-05-27T03:43:33.558Z,964.3
2016-05-27T03:44:33.561Z,964.27
2016-05-27T03:45:33.564Z,964.27
2016-05-27T03:46:33.566Z,964.26
2016-05-27T03:47:33.569Z,964.29
2016-05-27T03:48:33.806Z,964.27
2016-05-27T03:49:33.558Z,964.27
2016-05-27T03:50:33.561Z,964.28
2016-05-27T03:51:33.564Z,964.32
2016-05-27T03:52:33.566Z,964.3
2016-05-27T03:53:33.569Z,964.3
2016-05-27T03:54:33.572Z,964.29
2016-05-27T03:55:33.574Z,964.29
2016-05-27T03:56:33.562Z,964.28
2016-05-27T03:57:33.565Z,964.31
2016-05-27T03:58:33.567Z,964.29
2016-05-27T03:59:33.585Z,964.27
2016-05-27T04:00:33.573Z,964.26
2016-05-27T04:01:33.575Z,964.25
2016-05-27T04:02:33.578Z,964.32
2016-05-27T04:03:33.581Z,964.32
2016-05-27T04:04:33.584Z,964.35
2016-05-27T04:05:33.586Z,964.35
2016-05-27T04:06:33.573Z,964.33
2016-05-27T04:07:33.576Z,964.34
2016-05-27T04:08:33.578Z,964.38
2016-05-27T04:09:33.581Z,964.37
2016-05-27T04:10:33.600Z,964.38
2016-05-27T04:11:33.587Z,964.38
2016-05-27T04:12:33.589Z,964.36
2016-05-27T04:13:33.592Z,964.37
2016-05-27T04:14:33.594Z,964.34
2016-05-27T04:15:33.581Z,964.37
2016-05-27T04:16:33.584Z,964.36
2016-05-27T04:17:33.603Z,964.39
2016-05-27T04:18:33.589Z,964.38
2016-05-27T04:19:33.592Z,964.4
2016-05-27T04:20:33.595Z,964.42
2016-05-27T04:21:33.597Z,964.44
2016-05-27T04:22:33.600Z,964.44
2016-05-27T04:23:33.603Z,964.42
2016-05-27T04:24:33.590Z,964.43
2016-05-27T04:25:33.594Z,964.4
2016-05-27T04:26:33.596Z,964.41
2016-05-27T04:27:33.598Z,964.41
2016-05-27T04:28:33.601Z,964.39
2016-05-27T04:29:33.604Z,964.42
2016-05-27T04:30:33.606Z,964.43
2016-05-27T04:31:33.609Z,964.42
2016-05-27T04:32:33.627Z,964.38
2016-05-27T04:33:33.614Z,964.36
2016-05-27T04:34:33.617Z,964.39
2016-05-27T04:35:33.620Z,964.41
2016-05-27T04:36:33.606Z,964.48
2016-05-27T04:37:33.625Z,964.47
2016-05-27T04:38:33.628Z,964.47
2016-05-27T04:39:33.615Z,964.51
2016-05-27T04:40:33.617Z,964.52
2016-05-27T04:41:33.620Z,964.51
2016-05-27T04:42:33.623Z,964.56
2016-05-27T04:43:33.626Z,964.57
2016-05-27T04:44:33.628Z,964.56
2016-05-27T04:45:33.631Z,964.57
2016-05-27T04:46:33.634Z,964.63
2016-05-27T04:47:33.621Z,964.63
2016-05-27T04:48:33.624Z,964.68
2016-05-27T04:49:33.626Z,964.69
2016-05-27T04:50:33.629Z,964.63
2016-05-27T04:51:33.632Z,964.67
2016-05-27T04:52:33.635Z,964.68
2016-05-27T04:53:33.652Z,964.71
2016-05-27T04:54:33.640Z,964.74
2016-05-27T04:55:33.643Z,964.73
2016-05-27T04:56:33.645Z,964.78
2016-05-27T04:57:33.632Z,964.76
2016-05-27T04:58:33.635Z,964.79
2016-05-27T04:59:33.638Z,964.8
2016-05-27T05:00:33.640Z,964.75
2016-05-27T05:01:33.643Z,964.78
2016-05-27T05:02:33.645Z,964.78
2016-05-27T05:03:33.882Z,964.8
2016-05-27T05:04:33.651Z,964.73
2016-05-27T05:05:33.653Z,964.78
2016-05-27T05:06:33.656Z,964.79
2016-05-27T05:07:33.659Z,964.8
2016-05-27T05:08:33.646Z,964.79
2016-05-27T05:09:33.664Z,964.78
2016-05-27T05:10:33.651Z,964.8
2016-05-27T05:11:33.670Z,964.82
2016-05-27T05:12:33.657Z,964.88
2016-05-27T05:13:33.660Z,964.85
2016-05-27T05:14:33.662Z,964.9
2016-05-27T05:15:33.665Z,964.83
2016-05-27T05:16:33.667Z,964.88
2016-05-27T05:17:33.670Z,964.85
2016-05-27T05:18:33.673Z,964.86
2016-05-27T05:19:33.675Z,964.87
2016-05-27T05:20:33.663Z,964.91
2016-05-27T05:21:33.680Z,964.95
2016-05-27T05:22:33.683Z,964.95
2016-05-27T05:23:33.671Z,964.96
2016-05-27T05:24:33.674Z,964.98
2016-05-27T05:25:33.676Z,965.01
2016-05-27T05:26:33.679Z,964.99
2016-05-27T05:27:33.682Z,965.02
2016-05-27T05:28:33.685Z,965.02
2016-05-27T05:29:33.688Z,964.98
2016-05-27T05:30:33.689Z,964.98
2016-05-27T05:31:33.693Z,964.96
2016-05-27T05:32:33.696Z,965.01
2016-05-27T05:33:34.245Z,965.03
2016-05-27T05:34:33.701Z,965.03
2016-05-27T05:35:33.704Z,965.07
2016-05-27T05:36:33.706Z,965.12
2016-05-27T05:37:33.709Z,965.1
2016-05-27T05:38:33.696Z,965.12
2016-05-27T05:39:33.698Z,965.13
2016-05-27T05:40:33.701Z,965.12
2016-05-27T05:41:33.703Z,965.13
2016-05-27T05:42:33.707Z,965.13
2016-05-27T05:43:33.709Z,965.11
2016-05-27T05:44:33.711Z,965.08
2016-05-27T05:45:33.714Z,965.08
2016-05-27T05:46:33.717Z,965.12
2016-05-27T05:47:33.719Z,965.13
2016-05-27T05:48:34.019Z,965.13
2016-05-27T05:49:33.725Z,965.17
2016-05-27T05:50:33.728Z,965.16
2016-05-27T05:51:33.730Z,965.2
2016-05-27T05:52:33.733Z,965.23
2016-05-27T05:53:33.735Z,965.25
2016-05-27T05:54:33.723Z,965.19
2016-05-27T05:55:33.741Z,965.28
2016-05-27T05:56:33.744Z,965.25
2016-05-27T05:57:33.730Z,965.24
2016-05-27T05:58:33.733Z,965.23
2016-05-27T05:59:33.752Z,965.24
2016-05-27T06:00:33.739Z,965.22
2016-05-27T06:01:33.758Z,965.22
2016-05-27T06:02:33.760Z,965.21
2016-05-27T06:03:33.747Z,965.22
2016-05-27T06:04:33.906Z,965.28
2016-05-27T06:05:33.752Z,965.27
2016-05-27T06:06:33.755Z,965.3
2016-05-27T06:07:33.758Z,965.35
2016-05-27T06:08:33.776Z,965.29
2016-05-27T06:09:33.763Z,965.29
2016-05-27T06:10:33.766Z,965.28
2016-05-27T06:11:33.768Z,965.3
2016-05-27T06:12:33.770Z,965.32
2016-05-27T06:13:33.774Z,965.36
2016-05-27T06:14:33.776Z,965.41
2016-05-27T06:15:33.779Z,965.4
2016-05-27T06:16:33.781Z,965.43
2016-05-27T06:17:35.160Z,965.48
2016-05-27T06:18:33.787Z,965.45
2016-05-27T06:19:33.789Z,965.47
2016-05-27T06:20:33.809Z,965.49
2016-05-27T06:21:33.811Z,965.43
2016-05-27T06:22:35.330Z,965.48
2016-05-27T06:23:33.800Z,965.44
2016-05-27T06:24:33.803Z,965.52
2016-05-27T06:25:33.822Z,965.54
2016-05-27T06:26:33.824Z,965.55
2016-05-27T06:27:33.827Z,965.57
2016-05-27T06:28:33.830Z,965.6
2016-05-27T06:29:33.833Z,965.6
2016-05-27T06:30:33.835Z,965.62
2016-05-27T06:31:33.838Z,965.66
2016-05-27T06:32:33.841Z,965.65
2016-05-27T06:33:33.843Z,965.64
2016-05-27T06:34:33.846Z,965.63
2016-05-27T06:35:33.865Z,965.64
2016-05-27T06:36:33.867Z,965.68
2016-05-27T06:37:33.870Z,965.69
2016-05-27T06:38:33.873Z,965.69
2016-05-27T06:39:33.875Z,965.69
2016-05-27T06:40:33.879Z,965.71
2016-05-27T06:41:33.881Z,965.73
2016-05-27T06:42:33.883Z,965.69
2016-05-27T06:43:33.887Z,965.71
2016-05-27T06:44:33.889Z,965.75
2016-05-27T06:45:33.906Z,965.74
2016-05-27T06:46:33.909Z,965.76
2016-05-27T06:47:33.912Z,965.74
2016-05-27T06:48:34.009Z,965.74
2016-05-27T06:49:33.917Z,965.72
2016-05-27T06:50:33.920Z,965.76
2016-05-27T06:51:33.939Z,965.79
2016-05-27T06:52:33.941Z,965.73
2016-05-27T06:53:33.944Z,965.72
2016-05-27T06:54:33.947Z,965.7
2016-05-27T06:55:33.949Z,965.74
2016-05-27T06:56:33.953Z,965.78
2016-05-27T06:57:33.955Z,965.77
2016-05-27T06:58:33.958Z,965.74
2016-05-27T06:59:33.976Z,965.7
2016-05-27T07:00:33.978Z,965.71
2016-05-27T07:01:33.982Z,965.73
2016-05-27T07:02:33.985Z,965.74
2016-05-27T07:03:34.330Z,965.72
2016-05-27T07:04:38.051Z,965.72
2016-05-27T07:05:33.993Z,965.7
2016-05-27T07:06:33.995Z,965.79
2016-05-27T07:07:34.012Z,965.75
2016-05-27T07:08:34.016Z,965.76
2016-05-27T07:09:34.018Z,965.75
2016-05-27T07:10:34.021Z,965.76
2016-05-27T07:11:34.023Z,965.74
2016-05-27T07:12:34.042Z,965.78
2016-05-27T07:13:34.045Z,965.78
2016-05-27T07:14:34.031Z,965.78
2016-05-27T07:15:34.034Z,965.82
2016-05-27T07:16:34.053Z,965.84
2016-05-27T07:17:34.055Z,965.83
2016-05-27T07:18:34.059Z,965.79
2016-05-27T07:19:34.061Z,965.84
2016-05-27T07:20:34.064Z,965.79
2016-05-27T07:21:34.081Z,965.84
2016-05-27T07:22:34.085Z,965.83
2016-05-27T07:23:34.087Z,965.83
2016-05-27T07:24:35.277Z,965.82
2016-05-27T07:25:34.108Z,965.81
2016-05-27T07:26:34.111Z,965.83
2016-05-27T07:27:34.114Z,965.85
2016-05-27T07:28:34.116Z,965.88
2016-05-27T07:29:34.119Z,965.87
2016-05-27T07:30:34.122Z,965.85
2016-05-27T07:31:34.125Z,965.86
2016-05-27T07:32:34.127Z,965.93
2016-05-27T07:33:34.145Z,965.9
2016-05-27T07:34:34.149Z,965.96
2016-05-27T07:35:34.151Z,965.96
2016-05-27T07:36:34.154Z,965.97
2016-05-27T07:37:34.157Z,965.96
2016-05-27T07:38:34.159Z,965.98
2016-05-27T07:39:34.161Z,965.99
2016-05-27T07:40:34.165Z,966.01
2016-05-27T07:41:34.182Z,966.02
2016-05-27T07:42:34.185Z,966.03
2016-05-27T07:43:34.187Z,966.05
2016-05-27T07:44:34.207Z,966.04
2016-05-27T07:45:34.192Z,966.06
2016-05-27T07:46:34.196Z,966.01
2016-05-27T07:47:34.199Z,966.01
2016-05-27T07:48:34.217Z,965.99
2016-05-27T07:49:34.203Z,965.97
2016-05-27T07:50:34.223Z,965.95
2016-05-27T07:51:34.225Z,965.97
2016-05-27T07:52:34.227Z,965.96
2016-05-27T07:53:34.230Z,965.98
2016-05-27T07:54:34.233Z,965.98
2016-05-27T07:55:34.235Z,965.99
2016-05-27T07:56:34.254Z,965.99
2016-05-27T07:57:34.257Z,965.97
2016-05-27T07:58:34.260Z,966.05
2016-05-27T07:59:36.668Z,966.07
2016-05-27T08:00:34.266Z,966.03
2016-05-27T08:01:34.268Z,966.11
2016-05-27T08:02:34.270Z,966.12
2016-05-27T08:03:34.273Z,966.01
2016-05-27T08:04:34.291Z,966.01
2016-05-27T08:05:34.294Z,966.13
2016-05-27T08:06:34.296Z,966.11
2016-05-27T08:07:34.299Z,966.18
2016-05-27T08:08:34.301Z,965.99
2016-05-27T08:09:34.305Z,966.06
2016-05-27T08:10:34.307Z,966.21
2016-05-27T08:11:34.326Z,966.19
2016-05-27T08:12:34.328Z,966.04
2016-05-27T08:13:34.332Z,966.02
2016-05-27T08:14:34.334Z,966.02
2016-05-27T08:15:34.337Z,966.02
2016-05-27T08:16:34.354Z,966.08
2016-05-27T08:17:34.357Z,966.06
2016-05-27T08:18:34.360Z,966.06
2016-05-27T08:19:34.362Z,966.08
2016-05-27T08:20:34.365Z,966.01
2016-05-27T08:21:34.368Z,966.01
2016-05-27T08:22:34.386Z,966.02
2016-05-27T08:23:34.390Z,965.98
2016-05-27T08:24:34.392Z,966.02
2016-05-27T08:25:34.394Z,966.01
2016-05-27T08:26:34.397Z,966.02
2016-05-27T08:27:34.400Z,966.02
2016-05-27T08:28:34.419Z,965.95
2016-05-27T08:29:35.155Z,965.99
2016-05-27T08:30:34.424Z,966
2016-05-27T08:31:34.427Z,966
2016-05-27T08:32:34.444Z,965.98
2016-05-27T08:33:34.447Z,965.96
2016-05-27T08:34:38.419Z,965.95
2016-05-27T08:35:34.453Z,965.98
2016-05-27T08:36:34.455Z,965.99
2016-05-27T08:37:34.458Z,965.97
2016-05-27T08:38:34.476Z,965.94
2016-05-27T08:39:34.479Z,965.97
2016-05-27T08:40:34.482Z,965.97
2016-05-27T08:41:34.485Z,965.94
2016-05-27T08:42:34.487Z,965.94
2016-05-27T08:43:34.506Z,965.94
2016-05-27T08:44:34.509Z,965.97
2016-05-27T08:45:34.511Z,965.87
2016-05-27T08:46:34.514Z,965.98
2016-05-27T08:47:34.517Z,965.95
2016-05-27T08:48:34.519Z,965.96
2016-05-27T08:49:34.537Z,965.91
2016-05-27T08:50:34.540Z,965.94
2016-05-27T08:51:34.543Z,965.93
2016-05-27T08:52:34.546Z,965.94
2016-05-27T08:53:34.548Z,965.94
2016-05-27T08:54:34.567Z,965.89
2016-05-27T08:55:34.569Z,965.91
2016-05-27T08:56:34.572Z,965.88
2016-05-27T08:57:34.575Z,965.85
2016-05-27T08:58:34.592Z,965.84
2016-05-27T08:59:34.595Z,965.81
2016-05-27T09:00:34.597Z,965.82
2016-05-27T09:01:34.601Z,965.79
2016-05-27T09:02:34.619Z,965.81
2016-05-27T09:03:34.622Z,965.8
2016-05-27T09:04:34.625Z,965.74
2016-05-27T09:05:34.643Z,965.71
2016-05-27T09:06:34.646Z,965.71
2016-05-27T09:07:34.649Z,965.71
2016-05-27T09:08:34.651Z,965.74
2016-05-27T09:09:34.669Z,965.7
2016-05-27T09:10:34.672Z,965.78
2016-05-27T09:11:34.674Z,965.75
2016-05-27T09:12:34.677Z,965.71
2016-05-27T09:13:34.679Z,965.69
2016-05-27T09:14:34.699Z,965.67
2016-05-27T09:15:34.701Z,965.66
2016-05-27T09:16:34.719Z,965.73
2016-05-27T09:17:34.706Z,965.68
2016-05-27T09:18:34.726Z,965.69
2016-05-27T09:19:36.821Z,965.67
2016-05-27T09:20:34.730Z,965.72
2016-05-27T09:21:34.733Z,965.7
2016-05-27T09:22:34.750Z,965.74
2016-05-27T09:23:34.754Z,965.7
2016-05-27T09:24:34.757Z,965.74
2016-05-27T09:25:34.759Z,965.72
2016-05-27T09:26:34.762Z,965.71
2016-05-27T09:27:34.780Z,965.72
2016-05-27T09:28:34.783Z,965.71
2016-05-27T09:29:34.801Z,965.74
2016-05-27T09:30:34.803Z,965.74
2016-05-27T09:31:34.791Z,965.71
2016-05-27T09:32:34.809Z,965.69
2016-05-27T09:33:34.811Z,965.69
2016-05-27T09:34:34.814Z,965.72
2016-05-27T09:35:34.817Z,965.67
2016-05-27T09:36:34.820Z,965.67
2016-05-27T09:37:34.838Z,965.71
2016-05-27T09:38:34.841Z,965.72
2016-05-27T09:39:34.844Z,965.75
2016-05-27T09:40:34.846Z,965.75
2016-05-27T09:41:34.849Z,965.74
2016-05-27T09:42:34.868Z,965.73
2016-05-27T09:43:34.870Z,965.7
2016-05-27T09:44:34.873Z,965.67
2016-05-27T09:45:36.657Z,965.68
2016-05-27T09:46:34.878Z,965.68
2016-05-27T09:47:34.881Z,965.64
2016-05-27T09:48:34.899Z,965.63
2016-05-27T09:49:34.901Z,965.66
2016-05-27T09:50:34.904Z,965.64
2016-05-27T09:51:34.907Z,965.62
2016-05-27T09:52:34.909Z,965.59
2016-05-27T09:53:34.912Z,965.6
2016-05-27T09:54:34.915Z,965.59
2016-05-27T09:55:34.934Z,965.56
2016-05-27T09:56:34.936Z,965.58
2016-05-27T09:57:34.939Z,965.6
2016-05-27T09:58:34.957Z,965.57
2016-05-27T09:59:34.945Z,965.59
2016-05-27T10:00:34.963Z,965.55
2016-05-27T10:01:34.966Z,965.6
2016-05-27T10:02:34.968Z,965.56
2016-05-27T10:03:34.971Z,965.57
2016-05-27T10:04:34.973Z,965.54
2016-05-27T10:05:34.977Z,965.57
2016-05-27T10:06:34.980Z,965.53
2016-05-27T10:07:34.997Z,965.53
2016-05-27T10:08:34.999Z,965.5
2016-05-27T10:09:35.002Z,965.48
2016-05-27T10:10:35.004Z,965.47
2016-05-27T10:11:35.007Z,965.48
2016-05-27T10:12:35.027Z,965.48
2016-05-27T10:13:35.029Z,965.45
2016-05-27T10:14:35.032Z,965.42
2016-05-27T10:15:35.034Z,965.39
2016-05-27T10:16:35.052Z,965.42
2016-05-27T10:17:35.040Z,965.39
2016-05-27T10:18:35.043Z,965.39
2016-05-27T10:19:35.060Z,965.37
2016-05-27T10:20:35.063Z,965.39
2016-05-27T10:21:35.065Z,965.38
2016-05-27T10:22:35.068Z,965.36
2016-05-27T10:23:35.071Z,965.35
2016-05-27T10:24:35.090Z,965.33
2016-05-27T10:25:35.092Z,965.35
2016-05-27T10:26:35.095Z,965.35
2016-05-27T10:27:35.098Z,965.36
2016-05-27T10:28:35.100Z,965.33
2016-05-27T10:29:35.103Z,965.31
2016-05-27T10:30:35.106Z,965.28
2016-05-27T10:31:35.108Z,965.32
2016-05-27T10:32:35.111Z,965.26
2016-05-27T10:33:35.130Z,965.27
2016-05-27T10:34:35.163Z,965.25
2016-05-27T10:35:35.135Z,965.28
2016-05-27T10:36:35.138Z,965.27
2016-05-27T10:37:35.140Z,965.25
2016-05-27T10:38:35.144Z,965.2
2016-05-27T10:39:35.146Z,965.2
2016-05-27T10:40:35.148Z,965.23
2016-05-27T10:41:35.167Z,965.21
2016-05-27T10:42:35.169Z,965.25
2016-05-27T10:43:35.172Z,965.19
2016-05-27T10:44:35.175Z,965.21
2016-05-27T10:45:35.177Z,965.2
2016-05-27T10:46:35.180Z,965.15
2016-05-27T10:47:35.198Z,965.16
2016-05-27T10:48:35.185Z,965.14
2016-05-27T10:49:35.203Z,965.11
2016-05-27T10:50:35.206Z,965.14
2016-05-27T10:51:35.210Z,965.08
2016-05-27T10:52:35.212Z,965.06
2016-05-27T10:53:35.214Z,965.06
2016-05-27T10:54:35.217Z,965.09
2016-05-27T10:55:35.220Z,965.07
2016-05-27T10:56:35.264Z,965.02
2016-05-27T10:57:35.277Z,965.01
2016-05-27T10:58:35.321Z,965.02
2016-05-27T10:59:35.458Z,965.02
2016-05-27T11:00:35.378Z,965.06
2016-05-27T11:01:35.390Z,965.02
2016-05-27T11:02:35.402Z,965.04
2016-05-27T11:03:35.414Z,965.07
2016-05-27T11:04:35.425Z,965.01
2016-05-27T11:05:35.453Z,965.03
2016-05-27T11:06:35.459Z,964.97
2016-05-27T11:07:35.465Z,965.02
2016-05-27T11:08:35.471Z,965
2016-05-27T11:09:35.493Z,964.97
2016-05-27T11:10:35.484Z,964.99
2016-05-27T11:11:35.503Z,964.96
2016-05-27T11:12:35.491Z,964.98
2016-05-27T11:13:35.510Z,964.95
2016-05-27T11:14:35.515Z,964.97
2016-05-27T11:15:35.519Z,964.94
2016-05-27T11:16:35.522Z,964.94
2016-05-27T11:17:35.525Z,964.93
2016-05-27T11:18:35.527Z,964.95
2016-05-27T11:19:35.546Z,964.95
2016-05-27T11:20:35.549Z,964.93
2016-05-27T11:21:35.568Z,964.95
2016-05-27T11:22:35.555Z,964.93
2016-05-27T11:23:35.558Z,964.97
2016-05-27T11:24:35.561Z,964.88
2016-05-27T11:25:35.581Z,964.89
2016-05-27T11:26:35.567Z,964.87
2016-05-27T11:27:35.570Z,964.86
2016-05-27T11:28:35.572Z,964.86
2016-05-27T11:29:35.591Z,964.83
2016-05-27T11:30:35.577Z,964.84
2016-05-27T11:31:35.596Z,964.84
2016-05-27T11:32:35.599Z,964.8
2016-05-27T11:33:35.601Z,964.8
2016-05-27T11:34:35.605Z,964.79
2016-05-27T11:35:35.607Z,964.81
2016-05-27T11:36:35.625Z,964.79
2016-05-27T11:37:35.629Z,964.8
2016-05-27T11:38:35.631Z,964.88
2016-05-27T11:39:35.634Z,964.84
2016-05-27T11:40:35.637Z,964.86
2016-05-27T11:41:35.639Z,964.85
2016-05-27T11:42:35.642Z,964.87
2016-05-27T11:43:35.645Z,964.85
2016-05-27T11:44:35.647Z,964.83
2016-05-27T11:45:35.650Z,964.82
2016-05-27T11:46:35.668Z,964.79
2016-05-27T11:47:35.670Z,964.78
2016-05-27T11:48:35.673Z,964.8
2016-05-27T11:49:35.926Z,964.77
2016-05-27T11:50:35.678Z,964.75
2016-05-27T11:51:35.682Z,964.75
2016-05-27T11:52:35.684Z,964.75
2016-05-27T11:53:35.686Z,964.73
2016-05-27T11:54:35.705Z,964.71
2016-05-27T11:55:35.708Z,964.74
2016-05-27T11:56:35.710Z,964.69
2016-05-27T11:57:35.713Z,964.71
2016-05-27T11:58:35.716Z,964.7
2016-05-27T11:59:35.734Z,964.72
2016-05-27T12:00:35.722Z,964.66
2016-05-27T12:01:35.740Z,964.66
2016-05-27T12:02:35.743Z,964.64
2016-05-27T12:03:35.745Z,964.67
2016-05-27T12:04:35.748Z,964.7
2016-05-27T12:05:35.751Z,964.68
2016-05-27T12:06:35.754Z,964.65
2016-05-27T12:07:35.756Z,964.69
2016-05-27T12:08:35.774Z,964.67
2016-05-27T12:09:35.776Z,964.7
2016-05-27T12:10:35.780Z,964.67
2016-05-27T12:11:35.782Z,964.68
2016-05-27T12:12:35.785Z,964.66
2016-05-27T12:13:35.787Z,964.65
2016-05-27T12:14:35.790Z,964.63
2016-05-27T12:15:35.793Z,964.66
2016-05-27T12:16:35.795Z,964.66
2016-05-27T12:17:35.814Z,964.65
2016-05-27T12:18:35.816Z,964.67
2016-05-27T12:19:35.960Z,964.66
2016-05-27T12:20:35.822Z,964.62
2016-05-27T12:21:35.824Z,964.61
2016-05-27T12:22:35.828Z,964.6
2016-05-27T12:23:35.830Z,964.61
2016-05-27T12:24:35.848Z,964.64
2016-05-27T12:25:35.851Z,964.61
2016-05-27T12:26:35.853Z,964.58
2016-05-27T12:27:35.856Z,964.59
2016-05-27T12:28:35.858Z,964.58
2016-05-27T12:29:35.861Z,964.55
2016-05-27T12:30:35.864Z,964.58